Sylvester, Texas
Current Conditions -  °F | °C
As of 7:15 PM on Tuesday 27 Jan 2015 (Local Time) from KSWW Reporting Station
Clear Clear  
Wind Chill: 66°   Ceiling: Unl
Heat Index: 66°   Visibility: 10mi
Dew Point: 32°   Wind: 7mph
Humidity: 28%   Direction: 200°SSW
Pressure: 30.17"   Gusts: NA
Location:  32.72°N, 100.26°W
Report Text: KSWW 280115Z AUTO 20006KT 10SM CLR 19/00 A3017 RMK AO2 T01910001
Loading
Personal Weather Stations






























Interactive Weather Map New forecast layout! Learn more

10-Day Weather Forecast

Advertisements
Track Severe Weather on mobile